Brooker, Florida
Current Conditions -  °F | °C
As of 11:53 PM on Saturday 22 Nov 2014 (Local Time) from KGNV Reporting Station
Overcast Overcast  
Wind Chill: 67°   Ceiling: 5500
Heat Index: 67°   Visibility: 10mi
Dew Point: 63°   Wind: 10mph
Humidity: 87%   Direction: 110°ESE
Pressure: 30.11"   Gusts: NA
Location:  29.89°N, 82.33°W
Report Text: KGNV 230453Z AUTO 11009KT 10SM FEW041 BKN055 OVC095 19/17 A3011 RMK AO2 SLP193 T01940172 402220083
Loading
Personal Weather Stations






























Interactive Weather Map New forecast layout! Learn more

10-Day Weather Forecast

Advertisements
Track Severe Weather on mobile